sensor_id;sensor_type;location;lat;lon;timestamp;P1;durP1;ratioP1;P2;durP2;ratioP2
2966;SDS011;1493;51.496;7.210;2022-07-23T00:00:18;7.00;;;6.00;;
2966;SDS011;1493;51.496;7.210;2022-07-23T00:02:46;11.13;;;5.93;;
2966;SDS011;1493;51.496;7.210;2022-07-23T00:05:13;9.00;;;6.20;;
2966;SDS011;1493;51.496;7.210;2022-07-23T00:07:40;7.17;;;5.50;;
2966;SDS011;1493;51.496;7.210;2022-07-23T00:10:07;7.20;;;5.57;;
2966;SDS011;1493;51.496;7.210;2022-07-23T00:12:35;9.50;;;5.50;;
2966;SDS011;1493;51.496;7.210;2022-07-23T00:15:04;6.23;;;5.33;;
2966;SDS011;1493;51.496;7.210;2022-07-23T00:17:34;8.10;;;6.53;;
2966;SDS011;1493;51.496;7.210;2022-07-23T00:20:01;7.40;;;5.17;;
2966;SDS011;1493;51.496;7.210;2022-07-23T00:22:29;7.97;;;5.70;;
2966;SDS011;1493;51.496;7.210;2022-07-23T00:24:56;8.30;;;6.00;;
2966;SDS011;1493;51.496;7.210;2022-07-23T00:27:23;7.33;;;5.87;;
2966;SDS011;1493;51.496;7.210;2022-07-23T00:29:49;8.70;;;6.30;;
2966;SDS011;1493;51.496;7.210;2022-07-23T00:32:18;7.07;;;6.37;;
2966;SDS011;1493;51.496;7.210;2022-07-23T00:34:44;6.27;;;5.63;;
2966;SDS011;1493;51.496;7.210;2022-07-23T00:37:11;8.70;;;6.73;;
2966;SDS011;1493;51.496;7.210;2022-07-23T00:39:38;6.63;;;5.47;;
2966;SDS011;1493;51.496;7.210;2022-07-23T00:42:05;6.20;;;5.30;;
2966;SDS011;1493;51.496;7.210;2022-07-23T00:44:32;9.60;;;7.80;;
2966;SDS011;1493;51.496;7.210;2022-07-23T00:46:59;7.20;;;6.37;;
2966;SDS011;1493;51.496;7.210;2022-07-23T00:49:28;8.03;;;6.03;;
2966;SDS011;1493;51.496;7.210;2022-07-23T00:51:56;7.83;;;5.77;;
2966;SDS011;1493;51.496;7.210;2022-07-23T00:54:25;9.07;;;7.20;;
2966;SDS011;1493;51.496;7.210;2022-07-23T00:56:53;9.57;;;7.33;;
2966;SDS011;1493;51.496;7.210;2022-07-23T00:59:20;9.97;;;7.77;;
2966;SDS011;1493;51.496;7.210;2022-07-23T01:01:47;10.53;;;7.53;;
2966;SDS011;1493;51.496;7.210;2022-07-23T01:04:14;8.33;;;6.50;;
2966;SDS011;1493;51.496;7.210;2022-07-23T01:06:43;9.90;;;7.30;;
2966;SDS011;1493;51.496;7.210;2022-07-23T01:09:11;12.30;;;7.80;;
2966;SDS011;1493;51.496;7.210;2022-07-23T01:11:38;11.33;;;7.87;;
2966;SDS011;1493;51.496;7.210;2022-07-23T01:14:10;11.33;;;6.77;;
2966;SDS011;1493;51.496;7.210;2022-07-23T01:16:39;8.90;;;8.07;;
2966;SDS011;1493;51.496;7.210;2022-07-23T01:19:05;9.90;;;7.07;;
2966;SDS011;1493;51.496;7.210;2022-07-23T01:21:34;10.20;;;7.53;;
2966;SDS011;1493;51.496;7.210;2022-07-23T01:24:03;8.40;;;7.10;;
2966;SDS011;1493;51.496;7.210;2022-07-23T01:26:31;9.10;;;7.83;;
2966;SDS011;1493;51.496;7.210;2022-07-23T01:28:58;13.20;;;6.93;;
2966;SDS011;1493;51.496;7.210;2022-07-23T01:31:25;8.10;;;7.03;;
2966;SDS011;1493;51.496;7.210;2022-07-23T01:33:52;7.60;;;6.70;;
2966;SDS011;1493;51.496;7.210;2022-07-23T01:36:19;9.53;;;7.40;;
2966;SDS011;1493;51.496;7.210;2022-07-23T01:38:46;9.70;;;7.40;;
2966;SDS011;1493;51.496;7.210;2022-07-23T01:41:15;8.03;;;6.77;;
2966;SDS011;1493;51.496;7.210;2022-07-23T01:43:42;8.77;;;7.87;;
2966;SDS011;1493;51.496;7.210;2022-07-23T01:46:09;8.60;;;7.07;;
2966;SDS011;1493;51.496;7.210;2022-07-23T01:48:36;8.87;;;7.77;;
2966;SDS011;1493;51.496;7.210;2022-07-23T01:51:03;9.07;;;8.07;;
2966;SDS011;1493;51.496;7.210;2022-07-23T01:53:30;10.13;;;8.03;;
2966;SDS011;1493;51.496;7.210;2022-07-23T01:55:57;9.47;;;7.77;;
2966;SDS011;1493;51.496;7.210;2022-07-23T01:58:25;9.40;;;7.70;;
2966;SDS011;1493;51.496;7.210;2022-07-23T02:00:53;8.17;;;7.07;;
2966;SDS011;1493;51.496;7.210;2022-07-23T02:03:20;9.50;;;8.10;;
2966;SDS011;1493;51.496;7.210;2022-07-23T02:05:47;9.00;;;7.30;;
2966;SDS011;1493;51.496;7.210;2022-07-23T02:08:14;9.57;;;7.63;;
2966;SDS011;1493;51.496;7.210;2022-07-23T02:10:41;10.73;;;8.00;;
2966;SDS011;1493;51.496;7.210;2022-07-23T02:13:08;10.20;;;8.03;;
2966;SDS011;1493;51.496;7.210;2022-07-23T02:15:36;8.13;;;7.33;;
2966;SDS011;1493;51.496;7.210;2022-07-23T02:18:03;9.97;;;8.23;;
2966;SDS011;1493;51.496;7.210;2022-07-23T02:20:30;9.47;;;7.83;;
2966;SDS011;1493;51.496;7.210;2022-07-23T02:22:58;8.97;;;8.07;;
2966;SDS011;1493;51.496;7.210;2022-07-23T02:25:25;9.30;;;7.73;;
2966;SDS011;1493;51.496;7.210;2022-07-23T02:27:52;8.63;;;7.17;;
2966;SDS011;1493;51.496;7.210;2022-07-23T02:30:19;8.73;;;7.13;;
2966;SDS011;1493;51.496;7.210;2022-07-23T02:32:47;9.00;;;7.60;;
2966;SDS011;1493;51.496;7.210;2022-07-23T02:35:14;10.60;;;8.83;;
2966;SDS011;1493;51.496;7.210;2022-07-23T02:37:41;9.10;;;8.10;;
2966;SDS011;1493;51.496;7.210;2022-07-23T02:40:08;9.90;;;6.90;;
2966;SDS011;1493;51.496;7.210;2022-07-23T02:42:36;12.60;;;8.33;;
2966;SDS011;1493;51.496;7.210;2022-07-23T02:45:04;8.53;;;7.37;;
2966;SDS011;1493;51.496;7.210;2022-07-23T02:47:31;8.17;;;7.30;;
2966;SDS011;1493;51.496;7.210;2022-07-23T02:49:59;10.57;;;8.00;;
2966;SDS011;1493;51.496;7.210;2022-07-23T02:52:26;11.87;;;8.23;;
2966;SDS011;1493;51.496;7.210;2022-07-23T02:54:53;8.67;;;7.87;;
2966;SDS011;1493;51.496;7.210;2022-07-23T02:57:20;10.00;;;7.43;;
2966;SDS011;1493;51.496;7.210;2022-07-23T02:59:47;8.40;;;7.60;;
2966;SDS011;1493;51.496;7.210;2022-07-23T03:02:13;12.07;;;8.90;;
2966;SDS011;1493;51.496;7.210;2022-07-23T03:04:40;9.13;;;7.57;;
2966;SDS011;1493;51.496;7.210;2022-07-23T03:07:09;8.20;;;7.40;;
2966;SDS011;1493;51.496;7.210;2022-07-23T03:09:36;10.03;;;7.67;;
2966;SDS011;1493;51.496;7.210;2022-07-23T03:12:03;10.37;;;7.50;;
2966;SDS011;1493;51.496;7.210;2022-07-23T03:14:30;8.23;;;7.40;;
2966;SDS011;1493;51.496;7.210;2022-07-23T03:16:57;10.03;;;7.47;;
2966;SDS011;1493;51.496;7.210;2022-07-23T03:19:25;9.80;;;7.90;;
2966;SDS011;1493;51.496;7.210;2022-07-23T03:21:52;8.33;;;7.20;;
2966;SDS011;1493;51.496;7.210;2022-07-23T03:24:20;11.00;;;9.80;;
2966;SDS011;1493;51.496;7.210;2022-07-23T03:26:48;9.30;;;7.17;;
2966;SDS011;1493;51.496;7.210;2022-07-23T03:29:16;9.00;;;8.10;;
2966;SDS011;1493;51.496;7.210;2022-07-23T03:31:43;9.83;;;8.77;;
2966;SDS011;1493;51.496;7.210;2022-07-23T03:34:10;10.90;;;8.40;;
2966;SDS011;1493;51.496;7.210;2022-07-23T03:36:37;8.47;;;7.60;;
2966;SDS011;1493;51.496;7.210;2022-07-23T03:39:03;8.70;;;7.60;;
2966;SDS011;1493;51.496;7.210;2022-07-23T03:41:32;8.70;;;7.53;;
2966;SDS011;1493;51.496;7.210;2022-07-23T03:43:58;9.30;;;8.00;;
2966;SDS011;1493;51.496;7.210;2022-07-23T03:46:25;8.40;;;7.43;;
2966;SDS011;1493;51.496;7.210;2022-07-23T03:48:52;9.60;;;8.60;;
2966;SDS011;1493;51.496;7.210;2022-07-23T03:51:19;10.90;;;8.20;;
2966;SDS011;1493;51.496;7.210;2022-07-23T03:53:46;9.33;;;8.43;;
2966;SDS011;1493;51.496;7.210;2022-07-23T03:56:14;9.30;;;7.73;;
2966;SDS011;1493;51.496;7.210;2022-07-23T03:58:42;11.53;;;7.77;;
2966;SDS011;1493;51.496;7.210;2022-07-23T04:01:09;9.93;;;8.33;;
2966;SDS011;1493;51.496;7.210;2022-07-23T04:03:37;9.87;;;8.87;;
2966;SDS011;1493;51.496;7.210;2022-07-23T04:06:04;10.57;;;9.47;;
2966;SDS011;1493;51.496;7.210;2022-07-23T04:08:31;10.70;;;9.37;;
2966;SDS011;1493;51.496;7.210;2022-07-23T04:10:58;9.37;;;8.33;;
2966;SDS011;1493;51.496;7.210;2022-07-23T04:13:25;13.23;;;7.93;;
2966;SDS011;1493;51.496;7.210;2022-07-23T04:15:53;11.37;;;8.57;;
2966;SDS011;1493;51.496;7.210;2022-07-23T04:18:20;8.97;;;8.07;;
2966;SDS011;1493;51.496;7.210;2022-07-23T04:20:48;11.43;;;8.43;;
2966;SDS011;1493;51.496;7.210;2022-07-23T04:23:16;9.43;;;8.40;;
2966;SDS011;1493;51.496;7.210;2022-07-23T04:25:43;9.33;;;7.90;;
2966;SDS011;1493;51.496;7.210;2022-07-23T04:28:10;11.03;;;8.77;;
2966;SDS011;1493;51.496;7.210;2022-07-23T04:30:37;8.70;;;7.80;;
2966;SDS011;1493;51.496;7.210;2022-07-23T04:33:06;10.90;;;9.60;;
2966;SDS011;1493;51.496;7.210;2022-07-23T04:35:33;9.87;;;8.87;;
2966;SDS011;1493;51.496;7.210;2022-07-23T04:38:00;10.17;;;8.77;;
2966;SDS011;1493;51.496;7.210;2022-07-23T04:40:27;10.13;;;8.53;;
2966;SDS011;1493;51.496;7.210;2022-07-23T04:42:56;11.13;;;8.17;;
2966;SDS011;1493;51.496;7.210;2022-07-23T04:45:23;12.33;;;8.53;;
2966;SDS011;1493;51.496;7.210;2022-07-23T04:47:50;10.27;;;9.13;;
2966;SDS011;1493;51.496;7.210;2022-07-23T04:50:18;10.33;;;9.33;;
2966;SDS011;1493;51.496;7.210;2022-07-23T04:52:46;11.20;;;9.00;;
2966;SDS011;1493;51.496;7.210;2022-07-23T04:55:13;9.60;;;8.60;;
2966;SDS011;1493;51.496;7.210;2022-07-23T04:57:40;10.10;;;8.67;;
2966;SDS011;1493;51.496;7.210;2022-07-23T05:00:07;9.83;;;8.50;;
2966;SDS011;1493;51.496;7.210;2022-07-23T05:02:35;8.87;;;7.90;;
2966;SDS011;1493;51.496;7.210;2022-07-23T05:05:02;10.37;;;9.30;;
2966;SDS011;1493;51.496;7.210;2022-07-23T05:07:31;11.50;;;9.50;;
2966;SDS011;1493;51.496;7.210;2022-07-23T05:09:58;11.30;;;10.10;;
2966;SDS011;1493;51.496;7.210;2022-07-23T05:12:24;9.90;;;8.90;;
2966;SDS011;1493;51.496;7.210;2022-07-23T05:14:51;12.10;;;8.73;;
2966;SDS011;1493;51.496;7.210;2022-07-23T05:17:18;10.97;;;9.87;;
2966;SDS011;1493;51.496;7.210;2022-07-23T05:19:45;10.60;;;9.50;;
2966;SDS011;1493;51.496;7.210;2022-07-23T05:22:12;13.07;;;11.80;;
2966;SDS011;1493;51.496;7.210;2022-07-23T05:24:40;10.37;;;9.30;;
2966;SDS011;1493;51.496;7.210;2022-07-23T05:27:08;9.67;;;8.67;;
2966;SDS011;1493;51.496;7.210;2022-07-23T05:29:35;10.90;;;9.80;;
2966;SDS011;1493;51.496;7.210;2022-07-23T05:32:01;10.60;;;9.60;;
2966;SDS011;1493;51.496;7.210;2022-07-23T05:34:28;11.30;;;10.20;;
2966;SDS011;1493;51.496;7.210;2022-07-23T05:36:55;11.20;;;10.10;;
2966;SDS011;1493;51.496;7.210;2022-07-23T05:39:22;13.03;;;9.97;;
2966;SDS011;1493;51.496;7.210;2022-07-23T05:41:50;12.73;;;9.77;;
2966;SDS011;1493;51.496;7.210;2022-07-23T05:44:17;10.27;;;9.27;;
2966;SDS011;1493;51.496;7.210;2022-07-23T05:46:44;11.53;;;10.30;;
2966;SDS011;1493;51.496;7.210;2022-07-23T05:49:11;10.80;;;9.70;;
2966;SDS011;1493;51.496;7.210;2022-07-23T05:51:37;12.70;;;10.30;;
2966;SDS011;1493;51.496;7.210;2022-07-23T05:54:04;14.50;;;10.37;;
2966;SDS011;1493;51.496;7.210;2022-07-23T05:56:31;12.23;;;10.90;;
2966;SDS011;1493;51.496;7.210;2022-07-23T05:58:59;15.17;;;11.13;;
2966;SDS011;1493;51.496;7.210;2022-07-23T06:01:26;11.20;;;10.00;;
2966;SDS011;1493;51.496;7.210;2022-07-23T06:03:53;12.10;;;10.20;;
2966;SDS011;1493;51.496;7.210;2022-07-23T06:06:20;12.13;;;10.27;;
2966;SDS011;1493;51.496;7.210;2022-07-23T06:08:47;18.30;;;13.23;;
2966;SDS011;1493;51.496;7.210;2022-07-23T06:11:14;15.93;;;12.63;;
2966;SDS011;1493;51.496;7.210;2022-07-23T06:13:43;18.70;;;13.70;;
2966;SDS011;1493;51.496;7.210;2022-07-23T06:16:12;14.40;;;12.90;;
2966;SDS011;1493;51.496;7.210;2022-07-23T06:18:39;14.27;;;12.77;;
2966;SDS011;1493;51.496;7.210;2022-07-23T06:21:08;13.63;;;12.23;;
2966;SDS011;1493;51.496;7.210;2022-07-23T06:23:35;13.07;;;11.70;;
2966;SDS011;1493;51.496;7.210;2022-07-23T06:26:02;15.70;;;12.13;;
2966;SDS011;1493;51.496;7.210;2022-07-23T06:28:29;15.17;;;12.83;;
2966;SDS011;1493;51.496;7.210;2022-07-23T06:30:56;16.37;;;13.90;;
2966;SDS011;1493;51.496;7.210;2022-07-23T06:33:24;21.90;;;13.60;;
2966;SDS011;1493;51.496;7.210;2022-07-23T06:35:51;18.63;;;14.37;;
2966;SDS011;1493;51.496;7.210;2022-07-23T06:38:18;19.40;;;13.67;;
2966;SDS011;1493;51.496;7.210;2022-07-23T06:40:45;26.57;;;19.77;;
2966;SDS011;1493;51.496;7.210;2022-07-23T06:43:12;19.90;;;15.10;;
2966;SDS011;1493;51.496;7.210;2022-07-23T06:45:39;19.20;;;14.60;;
2966;SDS011;1493;51.496;7.210;2022-07-23T06:48:05;21.97;;;16.73;;
2966;SDS011;1493;51.496;7.210;2022-07-23T06:50:34;20.50;;;16.53;;
2966;SDS011;1493;51.496;7.210;2022-07-23T06:53:01;18.33;;;15.20;;
2966;SDS011;1493;51.496;7.210;2022-07-23T06:55:27;24.37;;;21.10;;
2966;SDS011;1493;51.496;7.210;2022-07-23T06:57:54;25.20;;;16.90;;
2966;SDS011;1493;51.496;7.210;2022-07-23T07:00:21;18.57;;;16.50;;
2966;SDS011;1493;51.496;7.210;2022-07-23T07:02:48;22.97;;;18.63;;
2966;SDS011;1493;51.496;7.210;2022-07-23T07:05:15;23.00;;;18.23;;
2966;SDS011;1493;51.496;7.210;2022-07-23T07:07:43;21.17;;;16.30;;
2966;SDS011;1493;51.496;7.210;2022-07-23T07:10:10;23.97;;;16.37;;
2966;SDS011;1493;51.496;7.210;2022-07-23T07:12:37;32.83;;;22.10;;
2966;SDS011;1493;51.496;7.210;2022-07-23T07:15:04;23.87;;;16.60;;
2966;SDS011;1493;51.496;7.210;2022-07-23T07:17:31;21.63;;;15.67;;
2966;SDS011;1493;51.496;7.210;2022-07-23T07:19:58;17.30;;;14.47;;
2966;SDS011;1493;51.496;7.210;2022-07-23T07:22:25;21.20;;;17.53;;
2966;SDS011;1493;51.496;7.210;2022-07-23T07:24:53;21.73;;;16.60;;
2966;SDS011;1493;51.496;7.210;2022-07-23T07:27:20;22.97;;;18.80;;
2966;SDS011;1493;51.496;7.210;2022-07-23T07:29:47;18.07;;;16.03;;
2966;SDS011;1493;51.496;7.210;2022-07-23T07:32:14;18.53;;;15.50;;
2966;SDS011;1493;51.496;7.210;2022-07-23T07:34:41;25.67;;;20.67;;
2966;SDS011;1493;51.496;7.210;2022-07-23T07:37:08;23.60;;;17.93;;
2966;SDS011;1493;51.496;7.210;2022-07-23T07:39:35;19.13;;;14.87;;
2966;SDS011;1493;51.496;7.210;2022-07-23T07:42:04;23.07;;;17.87;;
2966;SDS011;1493;51.496;7.210;2022-07-23T07:44:31;20.23;;;16.70;;
2966;SDS011;1493;51.496;7.210;2022-07-23T07:46:58;15.10;;;13.43;;
2966;SDS011;1493;51.496;7.210;2022-07-23T07:49:24;23.03;;;16.27;;
2966;SDS011;1493;51.496;7.210;2022-07-23T07:51:51;19.23;;;14.97;;
2966;SDS011;1493;51.496;7.210;2022-07-23T07:54:18;16.33;;;10.77;;
2966;SDS011;1493;51.496;7.210;2022-07-23T07:56:45;14.90;;;10.97;;
2966;SDS011;1493;51.496;7.210;2022-07-23T07:59:14;12.40;;;10.50;;
2966;SDS011;1493;51.496;7.210;2022-07-23T08:01:41;11.70;;;9.50;;
2966;SDS011;1493;51.496;7.210;2022-07-23T08:04:08;9.10;;;7.63;;
2966;SDS011;1493;51.496;7.210;2022-07-23T08:06:35;7.97;;;7.03;;
2966;SDS011;1493;51.496;7.210;2022-07-23T08:09:03;10.93;;;7.30;;
2966;SDS011;1493;51.496;7.210;2022-07-23T08:11:30;7.40;;;6.00;;
2966;SDS011;1493;51.496;7.210;2022-07-23T08:13:57;7.33;;;5.87;;
2966;SDS011;1493;51.496;7.210;2022-07-23T08:16:25;6.90;;;6.23;;
2966;SDS011;1493;51.496;7.210;2022-07-23T08:18:52;9.97;;;6.90;;
2966;SDS011;1493;51.496;7.210;2022-07-23T08:21:18;11.47;;;10.33;;
2966;SDS011;1493;51.496;7.210;2022-07-23T08:23:45;15.93;;;12.90;;
2966;SDS011;1493;51.496;7.210;2022-07-23T08:26:12;13.70;;;11.40;;
2966;SDS011;1493;51.496;7.210;2022-07-23T08:28:39;15.93;;;14.43;;
2966;SDS011;1493;51.496;7.210;2022-07-23T08:31:06;13.90;;;11.93;;
2966;SDS011;1493;51.496;7.210;2022-07-23T08:33:34;14.97;;;13.57;;
2966;SDS011;1493;51.496;7.210;2022-07-23T08:36:01;15.67;;;14.27;;
2966;SDS011;1493;51.496;7.210;2022-07-23T08:38:30;16.70;;;15.30;;
2966;SDS011;1493;51.496;7.210;2022-07-23T08:40:57;21.70;;;19.80;;
2966;SDS011;1493;51.496;7.210;2022-07-23T08:43:25;19.90;;;17.90;;
2966;SDS011;1493;51.496;7.210;2022-07-23T08:45:54;15.23;;;14.00;;
2966;SDS011;1493;51.496;7.210;2022-07-23T08:48:22;14.83;;;13.53;;
2966;SDS011;1493;51.496;7.210;2022-07-23T08:50:53;14.20;;;13.00;;
2966;SDS011;1493;51.496;7.210;2022-07-23T08:53:21;16.67;;;12.13;;
2966;SDS011;1493;51.496;7.210;2022-07-23T08:55:50;13.20;;;11.90;;
2966;SDS011;1493;51.496;7.210;2022-07-23T08:58:19;16.30;;;14.90;;
2966;SDS011;1493;51.496;7.210;2022-07-23T09:00:47;16.10;;;14.70;;
2966;SDS011;1493;51.496;7.210;2022-07-23T09:03:16;11.73;;;10.63;;
2966;SDS011;1493;51.496;7.210;2022-07-23T09:05:47;9.90;;;9.00;;
2966;SDS011;1493;51.496;7.210;2022-07-23T09:08:18;8.93;;;7.97;;
2966;SDS011;1493;51.496;7.210;2022-07-23T09:10:51;8.30;;;6.33;;
2966;SDS011;1493;51.496;7.210;2022-07-23T09:16:06;8.60;;;7.30;;
2966;SDS011;1493;51.496;7.210;2022-07-23T09:18:39;8.63;;;7.83;;
2966;SDS011;1493;51.496;7.210;2022-07-23T09:21:15;8.17;;;6.50;;
2966;SDS011;1493;51.496;7.210;2022-07-23T09:23:45;7.80;;;7.07;;
2966;SDS011;1493;51.496;7.210;2022-07-23T09:26:17;8.10;;;6.10;;
2966;SDS011;1493;51.496;7.210;2022-07-23T09:28:50;7.27;;;5.53;;
2966;SDS011;1493;51.496;7.210;2022-07-23T09:31:19;6.70;;;5.40;;
2966;SDS011;1493;51.496;7.210;2022-07-23T09:33:46;5.33;;;4.70;;
2966;SDS011;1493;51.496;7.210;2022-07-23T09:36:15;7.70;;;5.17;;
2966;SDS011;1493;51.496;7.210;2022-07-23T09:38:57;8.20;;;5.83;;
2966;SDS011;1493;51.496;7.210;2022-07-23T09:41:24;7.70;;;6.37;;
2966;SDS011;1493;51.496;7.210;2022-07-23T09:43:59;7.53;;;5.00;;
2966;SDS011;1493;51.496;7.210;2022-07-23T09:46:33;6.10;;;5.30;;
2966;SDS011;1493;51.496;7.210;2022-07-23T09:49:00;10.63;;;5.83;;
2966;SDS011;1493;51.496;7.210;2022-07-23T09:51:42;5.97;;;4.80;;
2966;SDS011;1493;51.496;7.210;2022-07-23T09:54:22;12.93;;;5.73;;
2966;SDS011;1493;51.496;7.210;2022-07-23T09:56:51;7.30;;;6.60;;
2966;SDS011;1493;51.496;7.210;2022-07-23T09:59:19;8.07;;;7.27;;
2966;SDS011;1493;51.496;7.210;2022-07-23T10:01:50;8.43;;;7.13;;
2966;SDS011;1493;51.496;7.210;2022-07-23T10:04:18;9.60;;;6.33;;
2966;SDS011;1493;51.496;7.210;2022-07-23T10:06:47;8.97;;;6.00;;
2966;SDS011;1493;51.496;7.210;2022-07-23T10:09:15;6.20;;;5.40;;
2966;SDS011;1493;51.496;7.210;2022-07-23T10:11:45;10.47;;;5.97;;
2966;SDS011;1493;51.496;7.210;2022-07-23T10:14:13;8.47;;;6.27;;
2966;SDS011;1493;51.496;7.210;2022-07-23T10:16:42;5.37;;;4.90;;
2966;SDS011;1493;51.496;7.210;2022-07-23T10:19:09;11.20;;;5.97;;
2966;SDS011;1493;51.496;7.210;2022-07-23T10:21:39;6.63;;;5.00;;
2966;SDS011;1493;51.496;7.210;2022-07-23T10:24:12;6.10;;;5.60;;
2966;SDS011;1493;51.496;7.210;2022-07-23T10:26:50;9.40;;;5.80;;
2966;SDS011;1493;51.496;7.210;2022-07-23T10:29:30;5.13;;;3.93;;
2966;SDS011;1493;51.496;7.210;2022-07-23T10:32:16;7.00;;;5.07;;
2966;SDS011;1493;51.496;7.210;2022-07-23T10:34:52;6.60;;;5.80;;
2966;SDS011;1493;51.496;7.210;2022-07-23T10:37:25;5.70;;;5.10;;
2966;SDS011;1493;51.496;7.210;2022-07-23T10:40:11;4.90;;;4.00;;
2966;SDS011;1493;51.496;7.210;2022-07-23T10:42:43;6.47;;;4.80;;
2966;SDS011;1493;51.496;7.210;2022-07-23T10:45:25;6.70;;;5.70;;
2966;SDS011;1493;51.496;7.210;2022-07-23T10:47:54;7.27;;;5.03;;
2966;SDS011;1493;51.496;7.210;2022-07-23T10:50:22;7.30;;;5.97;;
2966;SDS011;1493;51.496;7.210;2022-07-23T10:53:08;6.50;;;4.80;;
2966;SDS011;1493;51.496;7.210;2022-07-23T10:55:39;5.30;;;4.57;;
2966;SDS011;1493;51.496;7.210;2022-07-23T10:58:16;6.10;;;5.43;;
2966;SDS011;1493;51.496;7.210;2022-07-23T11:00:47;5.73;;;4.60;;
2966;SDS011;1493;51.496;7.210;2022-07-23T11:03:28;4.73;;;4.20;;
2966;SDS011;1493;51.496;7.210;2022-07-23T11:05:58;7.20;;;5.10;;
2966;SDS011;1493;51.496;7.210;2022-07-23T11:08:25;7.77;;;5.30;;
2966;SDS011;1493;51.496;7.210;2022-07-23T11:10:52;5.37;;;4.87;;
2966;SDS011;1493;51.496;7.210;2022-07-23T11:13:29;7.80;;;4.70;;
2966;SDS011;1493;51.496;7.210;2022-07-23T11:16:25;5.00;;;4.23;;
2966;SDS011;1493;51.496;7.210;2022-07-23T11:18:56;6.57;;;3.90;;
2966;SDS011;1493;51.496;7.210;2022-07-23T11:21:46;5.23;;;3.50;;
2966;SDS011;1493;51.496;7.210;2022-07-23T11:24:20;6.73;;;4.73;;
2966;SDS011;1493;51.496;7.210;2022-07-23T11:26:49;8.03;;;5.27;;
2966;SDS011;1493;51.496;7.210;2022-07-23T11:29:39;3.77;;;3.30;;
2966;SDS011;1493;51.496;7.210;2022-07-23T11:32:19;4.97;;;2.83;;
2966;SDS011;1493;51.496;7.210;2022-07-23T11:34:54;4.73;;;3.37;;
2966;SDS011;1493;51.496;7.210;2022-07-23T11:40:10;5.20;;;4.13;;
2966;SDS011;1493;51.496;7.210;2022-07-23T11:42:40;4.80;;;4.17;;
2966;SDS011;1493;51.496;7.210;2022-07-23T11:45:19;4.20;;;2.83;;
2966;SDS011;1493;51.496;7.210;2022-07-23T11:47:47;5.43;;;3.53;;
2966;SDS011;1493;51.496;7.210;2022-07-23T11:50:14;4.57;;;3.27;;
2966;SDS011;1493;51.496;7.210;2022-07-23T11:52:41;6.13;;;3.90;;
2966;SDS011;1493;51.496;7.210;2022-07-23T11:55:09;5.20;;;3.90;;
2966;SDS011;1493;51.496;7.210;2022-07-23T11:57:44;3.33;;;2.63;;
2966;SDS011;1493;51.496;7.210;2022-07-23T12:00:12;4.43;;;2.83;;
2966;SDS011;1493;51.496;7.210;2022-07-23T12:02:47;6.73;;;3.20;;
2966;SDS011;1493;51.496;7.210;2022-07-23T12:05:15;5.10;;;2.97;;
2966;SDS011;1493;51.496;7.210;2022-07-23T12:07:43;6.23;;;3.30;;
2966;SDS011;1493;51.496;7.210;2022-07-23T12:10:16;4.93;;;2.80;;
2966;SDS011;1493;51.496;7.210;2022-07-23T12:12:45;5.00;;;3.40;;
2966;SDS011;1493;51.496;7.210;2022-07-23T12:15:14;5.47;;;3.50;;
2966;SDS011;1493;51.496;7.210;2022-07-23T12:17:42;5.73;;;2.57;;
2966;SDS011;1493;51.496;7.210;2022-07-23T12:20:13;5.73;;;3.07;;
2966;SDS011;1493;51.496;7.210;2022-07-23T12:22:42;3.80;;;2.50;;
2966;SDS011;1493;51.496;7.210;2022-07-23T12:25:12;4.80;;;2.27;;
2966;SDS011;1493;51.496;7.210;2022-07-23T12:27:40;4.53;;;2.73;;
2966;SDS011;1493;51.496;7.210;2022-07-23T12:30:17;3.97;;;2.83;;
2966;SDS011;1493;51.496;7.210;2022-07-23T12:32:54;4.90;;;2.30;;
2966;SDS011;1493;51.496;7.210;2022-07-23T12:35:23;5.33;;;3.43;;
2966;SDS011;1493;51.496;7.210;2022-07-23T12:37:59;6.73;;;3.50;;
2966;SDS011;1493;51.496;7.210;2022-07-23T12:40:28;4.03;;;3.07;;
2966;SDS011;1493;51.496;7.210;2022-07-23T12:45:23;3.27;;;1.70;;
2966;SDS011;1493;51.496;7.210;2022-07-23T12:47:53;4.70;;;2.63;;
2966;SDS011;1493;51.496;7.210;2022-07-23T12:50:33;3.87;;;2.43;;
2966;SDS011;1493;51.496;7.210;2022-07-23T12:53:02;4.87;;;2.27;;
2966;SDS011;1493;51.496;7.210;2022-07-23T12:55:30;3.23;;;2.10;;
2966;SDS011;1493;51.496;7.210;2022-07-23T12:58:02;4.40;;;2.10;;
2966;SDS011;1493;51.496;7.210;2022-07-23T13:00:30;4.40;;;2.57;;
2966;SDS011;1493;51.496;7.210;2022-07-23T13:02:59;5.00;;;2.40;;
2966;SDS011;1493;51.496;7.210;2022-07-23T13:05:26;4.80;;;1.93;;
2966;SDS011;1493;51.496;7.210;2022-07-23T13:07:52;3.00;;;2.10;;
2966;SDS011;1493;51.496;7.210;2022-07-23T13:10:19;3.83;;;2.03;;
2966;SDS011;1493;51.496;7.210;2022-07-23T13:12:46;3.77;;;2.03;;
2966;SDS011;1493;51.496;7.210;2022-07-23T13:15:13;2.40;;;1.50;;
2966;SDS011;1493;51.496;7.210;2022-07-23T13:17:40;4.20;;;1.90;;
2966;SDS011;1493;51.496;7.210;2022-07-23T13:20:11;3.37;;;1.93;;
2966;SDS011;1493;51.496;7.210;2022-07-23T13:22:38;3.43;;;1.50;;
2966;SDS011;1493;51.496;7.210;2022-07-23T13:25:05;4.50;;;1.90;;
2966;SDS011;1493;51.496;7.210;2022-07-23T13:27:33;3.40;;;2.20;;
2966;SDS011;1493;51.496;7.210;2022-07-23T13:30:00;4.53;;;2.20;;
2966;SDS011;1493;51.496;7.210;2022-07-23T13:32:27;2.80;;;1.87;;
2966;SDS011;1493;51.496;7.210;2022-07-23T13:34:53;2.73;;;1.77;;
2966;SDS011;1493;51.496;7.210;2022-07-23T13:37:22;4.73;;;2.40;;
2966;SDS011;1493;51.496;7.210;2022-07-23T13:39:48;3.70;;;1.77;;
2966;SDS011;1493;51.496;7.210;2022-07-23T13:42:15;2.80;;;2.07;;
2966;SDS011;1493;51.496;7.210;2022-07-23T13:44:42;5.80;;;2.30;;
2966;SDS011;1493;51.496;7.210;2022-07-23T13:47:09;3.43;;;1.70;;
2966;SDS011;1493;51.496;7.210;2022-07-23T13:49:36;3.23;;;2.00;;
2966;SDS011;1493;51.496;7.210;2022-07-23T13:52:03;4.20;;;1.63;;
2966;SDS011;1493;51.496;7.210;2022-07-23T13:54:31;4.97;;;2.00;;
2966;SDS011;1493;51.496;7.210;2022-07-23T13:56:58;4.30;;;2.20;;
2966;SDS011;1493;51.496;7.210;2022-07-23T13:59:25;4.63;;;1.87;;
2966;SDS011;1493;51.496;7.210;2022-07-23T14:01:52;3.57;;;1.63;;
2966;SDS011;1493;51.496;7.210;2022-07-23T14:04:19;3.07;;;2.03;;
2966;SDS011;1493;51.496;7.210;2022-07-23T14:06:47;3.37;;;2.10;;
2966;SDS011;1493;51.496;7.210;2022-07-23T14:09:14;3.30;;;2.00;;
2966;SDS011;1493;51.496;7.210;2022-07-23T14:11:42;2.97;;;2.30;;
2966;SDS011;1493;51.496;7.210;2022-07-23T14:14:09;2.73;;;1.90;;
2966;SDS011;1493;51.496;7.210;2022-07-23T14:16:35;3.10;;;2.17;;
2966;SDS011;1493;51.496;7.210;2022-07-23T14:19:02;3.00;;;2.03;;
2966;SDS011;1493;51.496;7.210;2022-07-23T14:21:29;3.70;;;2.07;;
2966;SDS011;1493;51.496;7.210;2022-07-23T14:23:56;2.77;;;2.00;;
2966;SDS011;1493;51.496;7.210;2022-07-23T14:26:23;3.60;;;2.00;;
2966;SDS011;1493;51.496;7.210;2022-07-23T14:28:51;3.40;;;1.93;;
2966;SDS011;1493;51.496;7.210;2022-07-23T14:31:18;2.97;;;1.70;;
2966;SDS011;1493;51.496;7.210;2022-07-23T14:33:45;3.30;;;2.03;;
2966;SDS011;1493;51.496;7.210;2022-07-23T14:36:12;3.97;;;1.83;;
2966;SDS011;1493;51.496;7.210;2022-07-23T14:38:39;3.73;;;1.80;;
2966;SDS011;1493;51.496;7.210;2022-07-23T14:41:06;5.40;;;2.03;;
2966;SDS011;1493;51.496;7.210;2022-07-23T14:43:33;3.70;;;2.17;;
2966;SDS011;1493;51.496;7.210;2022-07-23T14:46:01;4.13;;;2.50;;
2966;SDS011;1493;51.496;7.210;2022-07-23T14:48:28;3.60;;;2.10;;
2966;SDS011;1493;51.496;7.210;2022-07-23T14:50:55;3.33;;;2.07;;
2966;SDS011;1493;51.496;7.210;2022-07-23T14:53:22;4.43;;;2.43;;
2966;SDS011;1493;51.496;7.210;2022-07-23T14:55:49;3.80;;;2.30;;
2966;SDS011;1493;51.496;7.210;2022-07-23T14:58:15;3.43;;;2.00;;
2966;SDS011;1493;51.496;7.210;2022-07-23T15:00:42;3.43;;;2.53;;
2966;SDS011;1493;51.496;7.210;2022-07-23T15:03:11;3.40;;;1.97;;
2966;SDS011;1493;51.496;7.210;2022-07-23T15:05:37;6.00;;;2.70;;
2966;SDS011;1493;51.496;7.210;2022-07-23T15:08:04;2.80;;;1.77;;
2966;SDS011;1493;51.496;7.210;2022-07-23T15:10:31;3.10;;;2.13;;
2966;SDS011;1493;51.496;7.210;2022-07-23T15:12:58;3.40;;;2.03;;
2966;SDS011;1493;51.496;7.210;2022-07-23T15:15:25;3.37;;;2.00;;
2966;SDS011;1493;51.496;7.210;2022-07-23T15:17:52;3.40;;;2.00;;
2966;SDS011;1493;51.496;7.210;2022-07-23T15:20:20;3.63;;;2.40;;
2966;SDS011;1493;51.496;7.210;2022-07-23T15:22:47;4.10;;;2.40;;